Cobbs Creek, Virginia
Current Conditions -  °F | °C
As of 3:35 AM on Saturday 25 Oct 2014 (Local Time) from KW75 Reporting Station
Clear Clear  
Wind Chill: 11°   Ceiling: Unl
Heat Index: 11°   Visibility: 10mi
Dew Point:   Wind: 6mph
Humidity: 67%   Direction: 320°NW
Pressure: 29.95"   Gusts: NA
Location:  37.51°N, 76.4°W
Report Text: KW75 250735Z AUTO 32005KT 10SM CLR 12/06 A2995 RMK AO1 T01150055
Loading
Personal Weather Stations






























Interactive Weather Map
Tropical Storm Tracking
New forecast layout! Learn more

10-Day Weather Forecast

Advertisements
Track Severe Weather on mobile